Time;durP1;ratioP1;P1;durP2;ratioP2;P2;SDS_P1;SDS_P2;PMS_P1;PMS_P2;Temp;Humidity;BMP_temperature;BMP_pressure;BME280_temperature;BME280_humidity;BME280_pressure;Samples;Min_cycle;Max_cycle;Signal;HPM_P1;HPM_P2
2024/02/26 00:02:20;;;;;;;24.80;9.10;;;;;;;8.36;77.98;93478.25;5063532;28;20091;-78
2024/02/26 00:04:46;;;;;;;20.30;8.98;;;;;;;8.40;77.65;93473.88;5062982;28;20062;-77
2024/02/26 00:07:11;;;;;;;17.55;8.00;;;;;;;8.42;77.32;93471.72;5061981;28;20301;-78
2024/02/26 00:09:37;;;;;;;20.98;10.05;;;;;;;8.44;77.04;93466.91;5062381;28;20020;-78
2024/02/26 00:12:03;;;;;;;20.40;10.35;;;;;;;8.43;76.64;93468.00;5061709;28;20100;-77
2024/02/26 00:14:32;;;;;;;21.33;10.13;;;;;;;8.41;76.68;93473.63;5062600;28;20024;-77
2024/02/26 00:16:57;;;;;;;10.45;5.68;;;;;;;8.45;76.17;93471.13;5062758;28;20033;-77
2024/02/26 00:19:22;;;;;;;12.52;7.25;;;;;;;8.42;75.28;93482.34;5062890;28;20025;-78
2024/02/26 00:21:48;;;;;;;14.05;7.65;;;;;;;8.37;75.62;93474.50;5063089;28;20180;-77
2024/02/26 00:24:13;;;;;;;16.67;8.15;;;;;;;8.41;76.26;93465.66;5062819;28;20036;-77
2024/02/26 00:26:39;;;;;;;17.80;8.50;;;;;;;8.45;76.38;93465.81;5063037;28;20019;-77
2024/02/26 00:29:05;;;;;;;11.93;5.93;;;;;;;8.51;75.78;93469.09;5062993;28;20223;-77
2024/02/26 00:31:30;;;;;;;11.57;6.63;;;;;;;8.49;75.79;93469.44;5062826;28;20029;-78
2024/02/26 00:33:56;;;;;;;9.50;5.70;;;;;;;8.50;75.58;93462.22;5062914;28;20029;-77
2024/02/26 00:36:21;;;;;;;17.98;7.07;;;;;;;8.55;75.53;93467.41;5063133;28;20024;-77
2024/02/26 00:38:50;;;;;;;13.70;5.95;;;;;;;8.55;75.83;93460.22;5066704;28;20028;-78
2024/02/26 00:41:19;;;;;;;14.25;6.55;;;;;;;8.62;75.74;93460.53;5067196;28;20028;-78
2024/02/26 00:43:45;;;;;;;13.65;7.18;;;;;;;8.67;75.65;93451.66;5067004;28;20035;-78
2024/02/26 00:46:10;;;;;;;16.75;7.40;;;;;;;8.67;76.00;93454.31;5067017;28;20052;-78
2024/02/26 00:48:37;;;;;;;15.55;7.32;;;;;;;8.70;76.23;93455.56;5066687;28;20333;-78
2024/02/26 00:51:05;;;;;;;14.77;7.13;;;;;;;8.71;75.91;93443.81;5066846;28;20216;-78
2024/02/26 00:53:30;;;;;;;12.98;6.97;;;;;;;8.69;76.36;93441.50;5066632;28;20035;-79
2024/02/26 00:55:56;;;;;;;15.55;7.65;;;;;;;8.72;76.37;93438.19;5067087;28;20020;-78
2024/02/26 00:58:21;;;;;;;14.88;7.88;;;;;;;8.75;76.44;93434.13;5066966;28;20033;-80
2024/02/26 01:00:46;;;;;;;19.33;8.48;;;;;;;8.75;76.58;93431.47;5065428;28;20068;-79
2024/02/26 01:03:12;;;;;;;13.68;8.52;;;;;;;8.76;76.80;93425.09;5066438;28;20056;-79
2024/02/26 01:05:37;;;;;;;19.20;8.60;;;;;;;8.80;76.81;93428.69;5066321;28;20025;-79
2024/02/26 01:08:04;;;;;;;20.45;9.73;;;;;;;8.84;76.95;93421.66;5066570;28;20028;-79
2024/02/26 01:10:29;;;;;;;15.07;8.38;;;;;;;8.84;77.05;93424.31;5066479;28;20036;-79
2024/02/26 01:12:54;;;;;;;19.50;9.88;;;;;;;8.87;77.04;93413.03;5065707;28;20029;-78
2024/02/26 01:15:23;;;;;;;17.00;8.88;;;;;;;8.92;77.11;93415.56;5066441;28;20021;-79
2024/02/26 01:17:49;;;;;;;17.63;8.95;;;;;;;8.98;76.93;93427.59;5066523;28;20028;-79
2024/02/26 01:20:15;;;;;;;21.23;9.38;;;;;;;8.96;76.71;93426.34;5066310;28;20126;-79
2024/02/26 01:22:40;;;;;;;17.40;8.32;;;;;;;8.94;76.80;93431.19;5065497;28;20021;-79
2024/02/26 01:25:07;;;;;;;17.67;7.97;;;;;;;8.90;76.12;93425.72;5065550;28;20012;-79
2024/02/26 01:27:32;;;;;;;17.17;7.65;;;;;;;8.83;75.74;93415.56;5064910;28;20021;-79
2024/02/26 01:29:58;;;;;;;13.18;7.55;;;;;;;8.71;76.11;93425.22;5066222;28;20232;-79
2024/02/26 01:32:23;;;;;;;18.08;10.15;;;;;;;8.62;76.64;93423.34;5066098;28;20082;-79
2024/02/26 01:34:48;;;;;;;13.88;8.65;;;;;;;8.50;77.19;93425.03;5066132;28;20025;-79
2024/02/26 01:37:14;;;;;;;18.15;8.93;;;;;;;8.42;77.70;93421.28;5065946;28;20021;-79
2024/02/26 01:39:41;;;;;;;19.90;9.63;;;;;;;8.37;78.40;93414.22;5065907;28;20017;-79
2024/02/26 01:42:07;;;;;;;17.55;9.43;;;;;;;8.38;78.56;93417.66;5066018;28;20124;-78
2024/02/26 01:44:32;;;;;;;18.00;9.80;;;;;;;8.45;78.28;93423.31;5065821;28;20112;-78
2024/02/26 01:46:58;;;;;;;22.25;8.50;;;;;;;8.45;78.53;93423.31;5065676;28;20091;-79
2024/02/26 01:49:24;;;;;;;13.90;8.15;;;;;;;8.46;78.61;93418.78;5065653;28;20025;-79
2024/02/26 01:51:49;;;;;;;19.25;9.50;;;;;;;8.41;79.11;93412.53;5066015;28;20027;-79
2024/02/26 01:54:15;;;;;;;21.88;8.93;;;;;;;8.47;79.08;93413.19;5065540;28;20052;-79
2024/02/26 01:56:41;;;;;;;14.63;7.93;;;;;;;8.51;78.85;93408.81;5065489;28;20227;-78
2024/02/26 01:59:08;;;;;;;16.52;8.60;;;;;;;8.58;79.04;93405.69;5065455;28;20035;-77
2024/02/26 02:01:34;;;;;;;17.27;9.25;;;;;;;8.58;78.94;93409.13;5065425;28;20028;-78
2024/02/26 02:04:00;;;;;;;14.95;7.95;;;;;;;8.63;78.37;93405.53;5065388;28;20021;-78
2024/02/26 02:06:27;;;;;;;18.70;8.48;;;;;;;8.61;77.98;93411.16;5065219;28;20216;-79
2024/02/26 02:08:54;;;;;;;18.95;8.50;;;;;;;8.61;77.83;93411.16;5065066;28;20243;-78
2024/02/26 02:11:20;;;;;;;16.52;7.60;;;;;;;8.68;77.28;93399.28;5065244;28;20021;-77
2024/02/26 02:13:46;;;;;;;18.55;8.30;;;;;;;8.66;77.41;93406.78;5065315;28;20196;-78
2024/02/26 02:16:12;;;;;;;15.82;7.80;;;;;;;8.66;77.75;93388.97;5065421;28;20017;-78
2024/02/26 02:18:37;;;;;;;16.95;8.35;;;;;;;8.70;77.74;93397.88;5065130;28;20028;-78
2024/02/26 02:21:03;;;;;;;13.20;6.93;;;;;;;8.78;77.56;93398.97;5065131;28;20020;-78
2024/02/26 02:23:29;;;;;;;16.70;7.97;;;;;;;8.67;78.29;93403.81;5065119;28;20070;-78
2024/02/26 02:25:56;;;;;;;18.58;8.40;;;;;;;8.68;78.21;93401.94;5064675;28;20021;-77
2024/02/26 02:28:22;;;;;;;19.92;9.57;;;;;;;8.74;77.75;93411.31;5065126;28;20065;-78
2024/02/26 02:30:48;;;;;;;17.23;9.57;;;;;;;8.74;77.94;93392.72;5065018;28;20132;-78
2024/02/26 02:33:15;;;;;;;18.75;9.93;;;;;;;8.74;77.82;93390.84;5064939;28;20346;-78
2024/02/26 02:35:41;;;;;;;24.92;11.13;;;;;;;8.70;77.93;93402.41;5064988;28;20047;-78
2024/02/26 02:38:06;;;;;;;24.85;10.77;;;;;;;8.59;78.62;93409.91;5065038;28;20215;-78
2024/02/26 02:40:32;;;;;;;17.42;10.43;;;;;;;8.54;79.15;93410.81;5064706;28;20338;-78
2024/02/26 02:42:58;;;;;;;19.17;10.10;;;;;;;8.54;79.25;93402.84;5064837;28;20059;-78
2024/02/26 02:45:23;;;;;;;18.20;10.57;;;;;;;8.57;79.37;93394.28;5064680;28;20020;-78
2024/02/26 02:47:49;;;;;;;17.63;10.70;;;;;;;8.61;79.21;93400.53;5064848;28;20021;-77
2024/02/26 02:50:14;;;;;;;17.35;10.30;;;;;;;8.68;79.04;93410.69;5064824;28;20020;-78
2024/02/26 02:52:40;;;;;;;19.75;10.82;;;;;;;8.73;79.10;93423.03;5064622;28;20215;-78
2024/02/26 02:55:05;;;;;;;21.23;10.02;;;;;;;8.79;79.19;93419.94;5064602;28;20052;-78
2024/02/26 02:57:32;;;;;;;19.27;10.05;;;;;;;8.78;78.20;93417.56;5064306;28;20025;-79
2024/02/26 02:59:57;;;;;;;26.45;11.20;;;;;;;8.69;78.56;93416.78;5064133;28;20084;-79
2024/02/26 03:02:24;;;;;;;31.15;13.57;;;;;;;8.58;79.12;93411.00;5064471;28;20032;-79
2024/02/26 03:04:50;;;;;;;28.38;14.45;;;;;;;8.61;79.23;93411.16;5064459;28;20025;-79
2024/02/26 03:07:15;;;;;;;20.83;11.95;;;;;;;8.70;79.53;93418.34;5064330;28;20365;-78
2024/02/26 03:09:41;;;;;;;20.02;11.18;;;;;;;8.76;79.54;93423.19;5064392;28;20029;-79
2024/02/26 03:12:06;;;;;;;21.42;9.70;;;;;;;8.82;79.18;93416.63;5064157;28;20033;-79
2024/02/26 03:14:32;;;;;;;17.85;9.43;;;;;;;8.81;79.05;93419.59;5064204;28;20028;-79
2024/02/26 03:16:57;;;;;;;19.67;9.25;;;;;;;8.82;78.96;93421.94;5063693;28;20037;-79
2024/02/26 03:19:22;;;;;;;17.40;9.18;;;;;;;8.87;78.73;93409.59;5064037;28;20025;-79
2024/02/26 03:21:48;;;;;;;18.73;9.07;;;;;;;8.91;78.62;93411.31;5064386;28;20021;-78
2024/02/26 03:24:14;;;;;;;18.83;9.20;;;;;;;8.93;78.63;93411.78;5064230;28;20032;-80
2024/02/26 03:26:39;;;;;;;18.17;8.85;;;;;;;8.93;78.74;93395.84;5064008;28;20005;-80
2024/02/26 03:29:05;;;;;;;18.33;8.75;;;;;;;8.95;78.51;93398.19;5063877;28;20056;-80
2024/02/26 03:31:31;;;;;;;14.70;8.18;;;;;;;8.98;78.28;93392.25;5063623;28;20118;-78
2024/02/26 03:33:56;;;;;;;14.13;7.93;;;;;;;9.01;77.90;93392.38;5063717;28;20032;-78
2024/02/26 03:36:22;;;;;;;23.23;8.27;;;;;;;9.01;78.06;93395.06;5063956;28;20075;-78
2024/02/26 03:38:48;;;;;;;13.75;8.00;;;;;;;9.02;77.98;93386.00;5062793;28;20365;-78
2024/02/26 03:41:14;;;;;;;17.80;8.02;;;;;;;8.99;77.89;93386.59;5063677;28;20090;-78
2024/02/26 03:43:40;;;;;;;15.45;7.35;;;;;;;9.00;77.68;93390.84;5063672;28;20028;-78
2024/02/26 03:46:09;;;;;;;20.90;7.75;;;;;;;8.97;77.81;93382.72;5063239;28;20025;-78
2024/02/26 03:48:35;;;;;;;16.17;8.07;;;;;;;8.98;77.55;93385.06;5063329;28;20028;-78
2024/02/26 03:51:00;;;;;;;17.08;8.65;;;;;;;8.95;77.55;93379.59;5063601;28;20021;-78
2024/02/26 03:53:26;;;;;;;22.70;8.35;;;;;;;8.93;77.21;93379.88;5063580;28;20025;-78
2024/02/26 03:55:52;;;;;;;20.20;8.35;;;;;;;8.91;77.17;93387.41;5063501;28;20024;-78
2024/02/26 03:58:18;;;;;;;15.50;7.80;;;;;;;8.89;77.28;93384.28;5063361;28;20021;-78
2024/02/26 04:00:44;;;;;;;19.00;8.70;;;;;;;8.89;77.36;93386.94;5063257;28;20027;-79
2024/02/26 04:03:09;;;;;;;18.98;7.75;;;;;;;8.91;77.33;93384.75;5063162;28;20024;-79
2024/02/26 04:05:34;;;;;;;19.45;8.98;;;;;;;8.86;77.02;93379.59;5063572;28;20037;-77
2024/02/26 04:08:00;;;;;;;21.85;9.18;;;;;;;8.86;77.58;93378.81;5063516;28;20123;-78
2024/02/26 04:10:25;;;;;;;16.08;8.98;;;;;;;8.82;77.69;93383.97;5063418;28;20036;-79
2024/02/26 04:12:50;;;;;;;19.40;8.60;;;;;;;8.81;77.92;93385.84;5062636;28;20039;-79
2024/02/26 04:15:16;;;;;;;17.30;8.18;;;;;;;8.83;77.78;93380.22;5063197;28;20200;-78
2024/02/26 04:17:42;;;;;;;16.77;8.63;;;;;;;8.83;77.80;93372.22;5062972;28;20033;-78
2024/02/26 04:20:08;;;;;;;20.05;8.30;;;;;;;8.81;78.20;93371.75;5063117;28;20048;-79
2024/02/26 04:22:33;;;;;;;18.55;8.88;;;;;;;8.79;78.14;93376.63;5063165;28;20367;-79
2024/02/26 04:24:59;;;;;;;21.73;9.52;;;;;;;8.77;78.38;93373.50;5063149;28;20024;-79
2024/02/26 04:27:24;;;;;;;24.30;10.20;;;;;;;8.75;78.47;93371.16;5063066;28;20027;-79
2024/02/26 04:29:49;;;;;;;18.45;10.43;;;;;;;8.76;78.47;93359.44;5063033;28;20025;-79
2024/02/26 04:32:15;;;;;;;16.77;9.00;;;;;;;8.80;78.58;93364.91;5063112;28;20017;-79
2024/02/26 04:34:41;;;;;;;16.35;7.95;;;;;;;8.80;78.34;93359.59;5063768;28;20032;-79
2024/02/26 04:37:07;;;;;;;17.70;8.52;;;;;;;8.80;78.23;93364.91;5063322;28;20086;-79
2024/02/26 04:39:32;;;;;;;19.45;9.15;;;;;;;8.82;77.88;93362.72;5063303;28;20093;-80
2024/02/26 04:41:58;;;;;;;21.90;9.30;;;;;;;8.81;78.09;93363.78;5063506;28;20106;-80
2024/02/26 04:44:23;;;;;;;22.45;9.63;;;;;;;8.83;77.77;93365.06;5063553;28;20071;-79
2024/02/26 04:46:49;;;;;;;15.75;10.23;;;;;;;8.83;77.80;93364.25;5063299;28;20036;-79
2024/02/26 04:49:14;;;;;;;22.20;9.95;;;;;;;8.84;77.92;93371.16;5063293;28;20266;-80
2024/02/26 04:51:39;;;;;;;22.65;9.70;;;;;;;8.86;78.00;93368.97;5063084;28;20089;-79
2024/02/26 04:54:05;;;;;;;22.67;10.75;;;;;;;8.86;77.73;93379.59;5063030;28;20071;-79
2024/02/26 04:56:30;;;;;;;22.70;11.02;;;;;;;8.83;77.86;93386.31;5062670;28;20063;-79
2024/02/26 04:58:55;;;;;;;22.98;11.43;;;;;;;8.72;78.69;93378.97;5063007;28;20039;-79
2024/02/26 05:01:21;;;;;;;22.30;11.65;;;;;;;8.62;78.78;93388.81;5063063;28;20035;-78
2024/02/26 05:03:46;;;;;;;22.30;12.00;;;;;;;8.56;79.20;93389.28;5062768;28;20316;-78
2024/02/26 05:06:12;;;;;;;25.55;13.00;;;;;;;8.51;79.94;93395.53;5062742;28;20246;-79
2024/02/26 05:08:38;;;;;;;30.83;13.15;;;;;;;8.43;80.37;93388.31;5062655;28;20048;-78
2024/02/26 05:11:04;;;;;;;31.45;13.15;;;;;;;8.34;80.98;93400.75;5062924;28;20070;-78
2024/02/26 05:13:29;;;;;;;26.90;13.65;;;;;;;8.28;81.36;93408.09;5062850;28;20337;-77
2024/02/26 05:15:55;;;;;;;29.48;14.57;;;;;;;8.28;81.73;93410.75;5062783;28;20066;-78
2024/02/26 05:18:22;;;;;;;24.80;14.02;;;;;;;8.37;81.62;93416.88;5062470;28;20324;-78
2024/02/26 05:20:47;;;;;;;28.98;14.93;;;;;;;8.37;81.59;93419.53;5062133;28;20063;-78
2024/02/26 05:23:13;;;;;;;33.90;14.98;;;;;;;8.39;81.61;93416.56;5063812;28;20020;-78
2024/02/26 05:25:38;;;;;;;27.65;14.60;;;;;;;8.42;81.50;93418.63;5065900;28;20087;-78
2024/02/26 05:28:04;;;;;;;29.38;15.60;;;;;;;8.41;81.24;93417.06;5065836;28;20257;-78
2024/02/26 05:30:29;;;;;;;29.20;15.23;;;;;;;8.37;81.33;93426.72;5065914;28;20025;-78
2024/02/26 05:32:55;;;;;;;25.05;14.45;;;;;;;8.35;81.52;93436.88;5065926;28;20025;-78
2024/02/26 05:35:20;;;;;;;29.88;15.20;;;;;;;8.34;81.92;93425.44;5066059;28;20048;-78
2024/02/26 05:37:46;;;;;;;36.13;15.75;;;;;;;8.33;82.13;93431.09;5065940;28;20041;-78
2024/02/26 05:40:12;;;;;;;35.08;17.08;;;;;;;8.34;82.29;93433.41;5065718;28;20341;-78
2024/02/26 05:42:37;;;;;;;34.00;16.05;;;;;;;8.41;82.16;93435.66;5064491;28;20104;-78
2024/02/26 05:45:06;;;;;;;31.63;16.20;;;;;;;8.40;82.42;93442.78;5065538;28;20028;-77
2024/02/26 05:47:32;;;;;;;32.97;17.77;;;;;;;8.38;82.88;93436.22;5065649;28;20021;-80
2024/02/26 05:49:59;;;;;;;37.85;17.58;;;;;;;8.40;82.79;93436.72;5065583;28;20025;-79
2024/02/26 05:52:24;;;;;;;34.17;17.20;;;;;;;8.42;82.86;93434.56;5065591;28;20227;-79
2024/02/26 05:54:50;;;;;;;29.45;17.40;;;;;;;8.41;82.74;93443.63;5065576;28;20049;-79
2024/02/26 05:57:15;;;;;;;35.63;17.58;;;;;;;8.46;82.62;93445.34;5065423;28;20025;-79
2024/02/26 05:59:40;;;;;;;33.47;16.63;;;;;;;8.49;82.62;93440.22;5065521;28;20048;-79
2024/02/26 06:02:06;;;;;;;34.00;17.13;;;;;;;8.54;82.51;93442.69;5065699;28;20043;-79
2024/02/26 06:04:31;;;;;;;37.58;17.05;;;;;;;8.56;82.15;93445.06;5065392;28;20049;-79
2024/02/26 06:06:57;;;;;;;34.58;16.73;;;;;;;8.52;81.89;93452.84;5065382;28;20088;-80
2024/02/26 06:09:23;;;;;;;31.52;15.52;;;;;;;8.52;81.87;93444.88;5065470;28;20027;-80
2024/02/26 06:11:48;;;;;;;33.67;16.42;;;;;;;8.51;81.81;93448.66;5065643;28;20017;-80
2024/02/26 06:14:17;;;;;;;34.30;15.82;;;;;;;8.47;82.19;93449.56;5065287;28;20029;-80
2024/02/26 06:16:43;;;;;;;29.35;15.75;;;;;;;8.50;82.17;93460.34;5065383;28;20039;-78
2024/02/26 06:19:09;;;;;;;28.98;15.07;;;;;;;8.49;82.14;93461.47;5065296;28;20021;-78
2024/02/26 06:21:34;;;;;;;30.42;15.73;;;;;;;8.49;82.41;93463.31;5065204;28;20212;-79
2024/02/26 06:24:00;;;;;;;31.80;16.33;;;;;;;8.49;82.61;93450.84;5065163;28;20070;-80
2024/02/26 06:26:28;;;;;;;37.00;18.33;;;;;;;8.58;82.18;93459.59;5065009;28;20067;-79
2024/02/26 06:28:54;;;;;;;27.60;16.17;;;;;;;8.63;81.91;93462.09;5065059;28;20035;-77
2024/02/26 06:31:22;;;;;;;35.65;16.70;;;;;;;8.69;81.90;93454.78;5064976;28;20128;-77
2024/02/26 06:33:47;;;;;;;33.92;16.77;;;;;;;8.77;81.64;93450.53;5064778;28;20063;-79
2024/02/26 06:36:12;;;;;;;37.97;17.83;;;;;;;8.80;81.51;93452.59;5064121;28;20033;-78
2024/02/26 06:38:38;;;;;;;30.10;17.20;;;;;;;8.82;81.47;93447.75;5064502;28;20033;-78
2024/02/26 06:41:03;;;;;;;31.13;17.52;;;;;;;8.90;81.38;93449.63;5064452;28;20035;-78
2024/02/26 06:43:29;;;;;;;45.20;22.60;;;;;;;8.90;81.43;93456.84;5063288;28;20024;-77
2024/02/26 06:45:54;;;;;;;39.25;20.73;;;;;;;8.94;81.48;93461.19;5064602;28;20036;-77
2024/02/26 06:48:19;;;;;;;37.95;20.55;;;;;;;9.07;81.17;93456.03;5064525;28;20123;-77
2024/02/26 06:50:45;;;;;;;39.42;19.98;;;;;;;9.13;80.80;93452.13;5064213;28;20096;-77
2024/02/26 06:53:10;;;;;;;37.95;20.38;;;;;;;9.20;80.76;93452.47;5064171;28;20056;-77
2024/02/26 06:55:40;;;;;;;42.30;19.75;;;;;;;9.26;80.19;93451.22;5064098;28;20283;-78
2024/02/26 06:58:05;;;;;;;41.03;20.02;;;;;;;9.30;79.95;93449.47;5064166;28;20050;-78
2024/02/26 07:00:30;;;;;;;40.72;20.27;;;;;;;9.35;79.77;93454.63;5064058;28;20223;-77
2024/02/26 07:02:56;;;;;;;39.53;21.65;;;;;;;9.40;79.28;93449.16;5063983;28;20067;-78
2024/02/26 07:05:21;;;;;;;43.58;20.45;;;;;;;9.48;79.41;93446.78;5063834;28;20043;-78
2024/02/26 07:07:47;;;;;;;40.13;19.92;;;;;;;9.53;79.11;93455.38;5062878;28;20032;-77
2024/02/26 07:10:12;;;;;;;45.92;20.45;;;;;;;9.54;79.13;93461.47;5063913;28;20029;-78
2024/02/26 07:12:38;;;;;;;36.13;19.15;;;;;;;9.60;78.91;93454.91;5063773;28;20208;-77
2024/02/26 07:15:05;;;;;;;43.13;19.08;;;;;;;9.71;78.62;93466.78;5063755;28;20037;-77
2024/02/26 07:17:30;;;;;;;42.42;20.77;;;;;;;9.76;78.50;93458.63;5063818;28;20040;-77
2024/02/26 07:19:55;;;;;;;44.00;20.77;;;;;;;9.80;78.30;93470.19;5063917;28;20035;-77
2024/02/26 07:22:21;;;;;;;41.72;19.58;;;;;;;9.85;78.10;93471.94;5062949;28;20115;-77
2024/02/26 07:24:46;;;;;;;43.22;17.77;;;;;;;9.90;77.67;93473.63;5063643;28;20031;-77
2024/02/26 07:27:12;;;;;;;37.80;15.93;;;;;;;9.94;77.43;93464.69;5063599;28;20028;-77
2024/02/26 07:29:37;;;;;;;39.17;22.38;;;;;;;9.84;76.46;93463.13;5063646;28;20028;-77
2024/02/26 07:32:03;;;;;;;52.40;30.13;;;;;;;9.97;75.89;93469.38;5063514;28;20052;-77
2024/02/26 07:34:29;;;;;;;45.83;29.23;;;;;;;10.02;74.60;93471.84;5063398;28;20090;-78
2024/02/26 07:36:55;;;;;;;42.10;21.88;;;;;;;10.07;74.55;93483.44;5063433;28;20383;-78
2024/02/26 07:39:21;;;;;;;46.97;20.83;;;;;;;10.04;74.98;93463.56;5063462;28;20031;-78
2024/02/26 07:41:49;;;;;;;42.72;19.30;;;;;;;10.02;74.92;93473.75;5063401;28;20304;-78
2024/02/26 07:44:15;;;;;;;36.55;18.98;;;;;;;10.04;75.08;93474.22;5063406;28;20021;-77
2024/02/26 07:46:40;;;;;;;25.30;15.65;;;;;;;10.08;74.69;93463.72;5063322;28;20303;-77
2024/02/26 07:49:09;;;;;;;31.42;16.42;;;;;;;10.08;75.36;93469.81;5062721;28;20270;-77
2024/02/26 07:51:34;;;;;;;32.45;16.48;;;;;;;10.04;75.08;93466.22;5061596;28;20056;-77
2024/02/26 07:54:00;;;;;;;33.00;15.75;;;;;;;10.07;75.60;93470.91;5061544;28;20335;-78
2024/02/26 07:56:26;;;;;;;33.67;18.25;;;;;;;10.11;75.90;93469.16;5062346;28;20021;-77
2024/02/26 07:58:51;;;;;;;34.15;16.55;;;;;;;10.13;75.33;93466.19;5062544;28;20025;-77
2024/02/26 08:01:17;;;;;;;32.05;16.40;;;;;;;10.15;75.21;93461.31;5062346;28;20033;-77
2024/02/26 08:03:42;;;;;;;37.70;17.00;;;;;;;10.12;74.74;93460.09;5062229;28;20032;-76
2024/02/26 08:06:08;;;;;;;37.05;14.20;;;;;;;10.13;74.74;93461.63;5062711;28;20028;-77
2024/02/26 08:08:34;;;;;;;27.55;13.38;;;;;;;10.12;74.40;93467.28;5062963;28;20323;-77
2024/02/26 08:10:59;;;;;;;27.25;12.27;;;;;;;10.08;74.36;93461.03;5062133;28;20131;-77
2024/02/26 08:13:26;;;;;;;27.92;13.90;;;;;;;10.08;74.32;93459.16;5062665;28;20032;-76
2024/02/26 08:15:51;;;;;;;31.85;12.90;;;;;;;10.03;74.25;93456.66;5062889;28;20319;-76
2024/02/26 08:18:17;;;;;;;31.15;12.82;;;;;;;10.06;74.75;93455.25;5062869;28;20096;-77
2024/02/26 08:20:42;;;;;;;19.15;11.65;;;;;;;10.15;74.21;93454.09;5062961;28;20231;-77
2024/02/26 08:23:08;;;;;;;24.55;12.70;;;;;;;10.17;73.98;93457.22;5062792;28;20017;-76
2024/02/26 08:25:33;;;;;;;26.15;12.75;;;;;;;10.30;74.22;93460.81;5062784;28;20103;-77
2024/02/26 08:27:58;;;;;;;22.27;11.95;;;;;;;10.50;73.76;93453.19;5062714;28;20021;-77
2024/02/26 08:30:24;;;;;;;25.42;12.50;;;;;;;10.67;73.12;93452.34;5062592;28;20035;-76
2024/02/26 08:32:49;;;;;;;38.45;12.38;;;;;;;10.69;72.32;93450.91;5062936;28;20270;-77
2024/02/26 08:35:15;;;;;;;24.60;10.95;;;;;;;10.82;72.47;93449.84;5062675;28;20219;-77
2024/02/26 08:37:44;;;;;;;25.13;7.90;;;;;;;11.02;71.70;93442.97;5062648;28;20070;-77
2024/02/26 08:40:10;;;;;;;11.43;6.03;;;;;;;11.22;71.17;93446.75;5062728;28;20041;-78
2024/02/26 08:42:35;;;;;;;12.93;6.25;;;;;;;11.48;69.90;93445.75;5062499;28;20091;-77
2024/02/26 08:45:02;;;;;;;15.10;5.30;;;;;;;11.66;68.34;93443.69;5062403;28;20027;-77
2024/02/26 08:47:28;;;;;;;11.23;5.45;;;;;;;11.81;67.91;93440.38;5062779;28;20197;-77
2024/02/26 08:49:53;;;;;;;13.73;5.47;;;;;;;11.96;67.60;93440.88;5062516;28;20112;-77
2024/02/26 08:52:18;;;;;;;22.63;5.80;;;;;;;12.12;66.83;93439.13;5062584;28;20035;-78
2024/02/26 08:54:44;;;;;;;17.77;5.00;;;;;;;12.30;66.26;93441.59;5062631;28;20040;-77
2024/02/26 08:57:09;;;;;;;18.50;5.40;;;;;;;12.46;66.27;93453.19;5062197;28;20109;-77
2024/02/26 08:59:35;;;;;;;17.05;5.45;;;;;;;12.68;64.89;93451.97;5066390;28;20315;-78
2024/02/26 09:02:00;;;;;;;17.50;5.28;;;;;;;12.80;63.91;93440.44;5066541;28;20397;-78
2024/02/26 09:04:27;;;;;;;15.68;4.88;;;;;;;12.92;63.79;93440.44;5066477;28;20020;-77
2024/02/26 09:06:52;;;;;;;9.13;4.60;;;;;;;13.03;62.65;93438.09;5066376;28;20021;-78
2024/02/26 09:09:18;;;;;;;8.07;4.75;;;;;;;13.09;61.96;93434.06;5066369;28;20055;-77
2024/02/26 09:11:43;;;;;;;14.02;5.00;;;;;;;13.15;61.84;93434.59;5066380;28;20017;-77
2024/02/26 09:14:09;;;;;;;9.73;4.88;;;;;;;13.16;61.88;93434.25;5066466;28;20317;-77
2024/02/26 09:16:34;;;;;;;24.45;6.28;;;;;;;13.19;61.23;93441.59;5066311;28;20227;-78
2024/02/26 09:19:00;;;;;;;16.30;5.35;;;;;;;13.21;61.14;93438.59;5066246;28;20035;-78
2024/02/26 09:21:26;;;;;;;14.20;5.20;;;;;;;13.22;61.18;93429.44;5066165;28;20146;-78
2024/02/26 09:23:52;;;;;;;12.77;5.18;;;;;;;13.22;61.31;93427.53;5066190;28;20108;-75
2024/02/26 09:26:18;;;;;;;15.43;4.38;;;;;;;13.36;60.30;93429.88;5066225;28;20016;-76
2024/02/26 09:28:43;;;;;;;8.90;4.68;;;;;;;13.39;60.47;93434.56;5065995;28;20367;-77
2024/02/26 09:31:09;;;;;;;8.25;4.85;;;;;;;13.53;59.91;93428.00;5066058;28;20028;-77
2024/02/26 09:33:35;;;;;;;8.65;4.35;;;;;;;13.55;60.25;93428.44;5065766;28;20020;-76
2024/02/26 09:36:00;;;;;;;10.93;4.97;;;;;;;13.69;59.88;93425.38;5065819;28;20066;-76
2024/02/26 09:38:29;;;;;;;16.95;5.82;;;;;;;13.81;59.88;93426.09;5065859;28;20249;-77
2024/02/26 09:40:57;;;;;;;14.10;4.40;;;;;;;13.94;58.84;93426.00;5065980;28;20021;-77
2024/02/26 09:43:26;;;;;;;12.50;4.43;;;;;;;14.09;58.11;93419.91;5065691;28;20036;-77
2024/02/26 09:45:53;;;;;;;13.52;4.28;;;;;;;14.08;57.41;93415.66;5065857;28;20220;-77
2024/02/26 09:48:19;;;;;;;11.55;4.82;;;;;;;14.14;57.41;93418.84;5065474;28;20035;-77
2024/02/26 09:50:46;;;;;;;19.15;4.80;;;;;;;14.06;57.58;93423.25;5065677;28;20067;-77
2024/02/26 09:53:14;;;;;;;8.63;5.20;;;;;;;14.10;57.23;93410.72;5065612;28;20188;-77
2024/02/26 09:55:40;;;;;;;8.38;4.90;;;;;;;14.15;56.74;93405.13;5065253;28;20112;-79
2024/02/26 09:58:06;;;;;;;12.43;5.45;;;;;;;14.13;57.48;93406.59;5065335;28;20044;-78
2024/02/26 10:00:34;;;;;;;12.93;4.75;;;;;;;14.21;57.48;93408.31;5065212;28;20256;-77
2024/02/26 10:03:05;;;;;;;12.15;4.78;;;;;;;14.25;56.73;93395.78;5065192;28;20100;-78
2024/02/26 10:05:33;;;;;;;11.15;4.20;;;;;;;14.28;56.41;93402.34;5065399;28;20021;-77
2024/02/26 10:08:00;;;;;;;10.20;4.88;;;;;;;14.27;57.01;93396.22;5065209;28;20025;-78
2024/02/26 10:10:28;;;;;;;13.35;5.72;;;;;;;14.37;56.77;93389.53;5063810;28;20059;-77
2024/02/26 10:12:54;;;;;;;13.45;4.88;;;;;;;14.38;56.28;93391.84;5065233;28;20024;-78
2024/02/26 10:15:19;;;;;;;14.02;5.28;;;;;;;14.38;56.72;93380.38;5065309;28;20066;-77
2024/02/26 10:17:45;;;;;;;14.15;4.93;;;;;;;14.34;56.77;93374.16;5065067;28;20100;-78
2024/02/26 10:20:17;;;;;;;9.38;4.95;;;;;;;14.31;57.02;93382.88;5065180;28;20188;-77
2024/02/26 10:22:44;;;;;;;18.75;5.53;;;;;;;14.23;57.06;93374.69;5064871;28;20078;-78
2024/02/26 10:25:09;;;;;;;15.07;5.60;;;;;;;14.28;56.56;93375.53;5064954;28;20071;-77
2024/02/26 10:27:35;;;;;;;12.18;6.15;;;;;;;14.24;56.23;93370.84;5064975;28;20025;-78
2024/02/26 10:30:14;;;;;;;17.23;5.80;;;;;;;14.30;56.45;93363.34;5064858;28;20025;-77
2024/02/26 10:32:39;;;;;;;12.02;4.65;;;;;;;14.31;56.30;93364.91;5064838;28;20056;-77
2024/02/26 10:35:08;;;;;;;15.80;4.72;;;;;;;14.42;56.42;93365.13;5064529;28;20029;-77
2024/02/26 10:37:34;;;;;;;8.98;4.47;;;;;;;14.45;55.78;93359.09;5064365;28;20342;-77
2024/02/26 10:40:03;;;;;;;11.35;5.35;;;;;;;14.44;55.12;93360.19;5064472;28;20044;-77
2024/02/26 10:42:28;;;;;;;15.25;5.25;;;;;;;14.49;54.78;93357.28;5063089;28;20149;-78
2024/02/26 10:44:53;;;;;;;15.50;4.80;;;;;;;14.52;54.59;93358.47;5062948;28;20104;-77
2024/02/26 10:47:19;;;;;;;7.43;4.50;;;;;;;14.55;54.33;93347.81;5062813;28;20254;-79
2024/02/26 10:49:47;;;;;;;9.48;4.65;;;;;;;14.68;56.03;93350.41;5062894;28;20021;-72
2024/02/26 10:52:15;;;;;;;21.27;5.07;;;;;;;14.84;55.11;93356.50;5063841;28;20021;-88
2024/02/26 10:54:43;;;;;;;12.95;4.78;;;;;;;14.95;54.13;93349.44;5064678;28;20049;-87
2024/02/26 10:57:09;;;;;;;13.98;5.10;;;;;;;14.99;54.73;93346.84;5065688;28;20029;-87
2024/02/26 10:59:36;;;;;;;9.93;4.93;;;;;;;15.03;53.90;93345.75;5065462;28;20024;-89
2024/02/26 11:02:02;;;;;;;7.30;4.60;;;;;;;15.11;53.31;93352.06;5065893;28;20048;-88
2024/02/26 11:04:30;;;;;;;12.32;5.32;;;;;;;15.12;53.18;93339.41;5068209;28;20040;-83
2024/02/26 11:06:57;;;;;;;12.70;4.70;;;;;;;15.19;52.88;93347.63;5064865;28;20025;-86
2024/02/26 11:09:23;;;;;;;10.18;4.43;;;;;;;15.21;52.57;93342.66;5069886;28;20029;-87
2024/02/26 11:11:50;;;;;;;7.85;4.53;;;;;;;15.29;52.09;93347.03;5069043;28;20025;-87
2024/02/26 11:14:16;;;;;;;11.75;4.70;;;;;;;15.32;51.75;93362.44;5068362;28;20029;-86
2024/02/26 11:16:42;;;;;;;12.25;4.85;;;;;;;15.35;51.20;93353.66;5066495;28;20280;-88
2024/02/26 11:19:10;;;;;;;8.27;4.07;;;;;;;15.35;50.92;93351.00;5066012;28;20012;-88
2024/02/26 11:21:41;;;;;;;15.60;4.95;;;;;;;15.36;50.88;93355.22;5064401;28;20097;-86